createdAt,value
2019-02-06T00:01:13.946Z,21.40
2019-02-06T00:03:42.784Z,20.37
2019-02-06T00:06:12.187Z,20.17
2019-02-06T00:08:41.031Z,19.47
2019-02-06T00:11:09.924Z,24.67
2019-02-06T00:13:38.780Z,19.93
2019-02-06T00:16:07.587Z,21.15
2019-02-06T00:18:36.450Z,18.90
2019-02-06T00:21:05.250Z,18.90
2019-02-06T00:23:34.093Z,19.20
2019-02-06T00:26:02.969Z,19.57
2019-02-06T00:28:31.817Z,20.37
2019-02-06T00:31:00.669Z,20.60
2019-02-06T00:33:29.503Z,20.07
2019-02-06T00:35:58.333Z,23.20
2019-02-06T00:38:27.171Z,23.23
2019-02-06T00:40:56.012Z,22.30
2019-02-06T00:43:25.603Z,20.00
2019-02-06T00:45:54.437Z,21.83
2019-02-06T00:48:23.278Z,22.97
2019-02-06T00:50:52.700Z,23.92
2019-02-06T00:53:21.549Z,21.20
2019-02-06T00:55:50.388Z,19.87
2019-02-06T00:58:19.955Z,20.07
2019-02-06T01:00:48.789Z,19.00
2019-02-06T01:03:17.643Z,18.80
2019-02-06T01:05:46.493Z,18.60
2019-02-06T01:08:15.329Z,20.02
2019-02-06T01:10:44.191Z,19.77
2019-02-06T01:13:13.025Z,21.48
2019-02-06T01:15:41.854Z,21.27
2019-02-06T01:18:10.688Z,22.13
2019-02-06T01:20:39.532Z,20.47
2019-02-06T01:23:08.356Z,22.85
2019-02-06T01:25:37.187Z,23.03
2019-02-06T01:28:06.060Z,21.63
2019-02-06T01:30:35.750Z,23.73
2019-02-06T01:33:05.381Z,23.67
2019-02-06T01:35:34.219Z,23.40
2019-02-06T01:38:03.055Z,22.47
2019-02-06T01:40:31.881Z,22.67
2019-02-06T01:43:00.719Z,23.50
2019-02-06T01:45:30.327Z,23.10
2019-02-06T01:47:59.923Z,24.67
2019-02-06T01:50:28.765Z,25.70
2019-02-06T01:52:57.605Z,24.80
2019-02-06T01:55:27.177Z,22.90
2019-02-06T01:57:56.022Z,25.07
2019-02-06T02:00:24.854Z,26.83
2019-02-06T02:02:53.686Z,26.63
2019-02-06T02:05:23.337Z,27.07
2019-02-06T02:07:52.284Z,25.63
2019-02-06T02:10:21.029Z,25.07
2019-02-06T02:12:49.839Z,24.43
2019-02-06T02:15:18.663Z,26.27
2019-02-06T02:17:47.495Z,26.57
2019-02-06T02:20:18.158Z,24.97
2019-02-06T02:22:46.999Z,25.90
2019-02-06T02:25:15.838Z,26.30
2019-02-06T02:27:45.433Z,24.60
2019-02-06T02:30:15.220Z,24.50
2019-02-06T02:32:44.052Z,26.03
2019-02-06T02:35:13.652Z,25.73
2019-02-06T02:37:43.228Z,26.60
2019-02-06T02:40:12.053Z,25.70
2019-02-06T02:42:41.626Z,27.27
2019-02-06T02:45:10.472Z,26.87
2019-02-06T02:47:39.299Z,26.23
2019-02-06T02:50:08.122Z,26.63
2019-02-06T02:52:37.691Z,25.50
2019-02-06T02:55:06.529Z,27.40
2019-02-06T02:57:35.356Z,25.93
2019-02-06T03:00:09.031Z,24.67
2019-02-06T03:02:38.729Z,24.87
2019-02-06T03:05:07.568Z,26.20
2019-02-06T03:07:36.387Z,26.63
2019-02-06T03:10:05.961Z,24.73
2019-02-06T03:12:34.790Z,25.43
2019-02-06T03:15:03.640Z,26.20
2019-02-06T03:17:32.483Z,27.40
2019-02-06T03:20:01.326Z,24.13
2019-02-06T03:22:32.846Z,25.97
2019-02-06T03:24:58.997Z,25.90
2019-02-06T03:27:27.823Z,25.40
2019-02-06T03:29:57.426Z,25.83
2019-02-06T03:32:26.325Z,27.40
2019-02-06T03:34:55.105Z,25.67
2019-02-06T03:37:23.937Z,25.67
2019-02-06T03:39:52.793Z,26.35
2019-02-06T03:42:22.362Z,24.83
2019-02-06T03:44:51.204Z,24.17
2019-02-06T03:47:20.044Z,26.53
2019-02-06T03:49:48.880Z,24.70
2019-02-06T03:52:17.716Z,24.43
2019-02-06T03:54:46.554Z,25.30
2019-02-06T03:57:15.389Z,24.17
2019-02-06T03:59:44.298Z,27.13
2019-02-06T04:02:13.148Z,24.23
2019-02-06T04:04:42.000Z,27.05
2019-02-06T04:07:10.830Z,26.20
2019-02-06T04:09:39.668Z,27.17
2019-02-06T04:12:08.522Z,28.63
2019-02-06T04:14:37.358Z,28.52
2019-02-06T04:17:06.187Z,28.92
2019-02-06T04:19:35.141Z,28.13
2019-02-06T04:22:04.604Z,27.00
2019-02-06T04:24:33.590Z,28.47
2019-02-06T04:27:02.276Z,28.33
2019-02-06T04:29:31.122Z,26.07
2019-02-06T04:31:59.954Z,26.47
2019-02-06T04:34:28.797Z,25.17
2019-02-06T04:37:06.342Z,27.57
2019-02-06T04:39:26.464Z,28.20
2019-02-06T04:41:56.041Z,27.83
2019-02-06T04:44:24.895Z,25.70
2019-02-06T04:46:54.477Z,27.20
2019-02-06T04:49:23.327Z,28.80
2019-02-06T04:51:52.169Z,28.43
2019-02-06T04:54:21.010Z,27.87
2019-02-06T04:56:49.845Z,29.80
2019-02-06T04:59:18.676Z,30.00
2019-02-06T05:01:47.510Z,26.53
2019-02-06T05:04:16.360Z,31.00
2019-02-06T05:06:45.203Z,29.87
2019-02-06T05:09:14.042Z,28.57
2019-02-06T05:11:42.886Z,28.83
2019-02-06T05:14:11.729Z,29.60
2019-02-06T05:16:40.579Z,30.37
2019-02-06T05:19:09.419Z,30.90
2019-02-06T05:21:38.253Z,30.80
2019-02-06T05:24:07.111Z,31.13
2019-02-06T05:26:36.673Z,30.50
2019-02-06T05:29:05.502Z,31.57
2019-02-06T05:31:34.334Z,28.33
2019-02-06T05:34:03.174Z,33.63
2019-02-06T05:36:32.765Z,29.50
2019-02-06T05:39:01.600Z,35.27
2019-02-06T05:41:30.453Z,35.13
2019-02-06T05:43:59.318Z,34.63
2019-02-06T05:46:28.154Z,33.45
2019-02-06T05:48:56.992Z,30.53
2019-02-06T05:51:25.838Z,32.97
2019-02-06T05:53:54.671Z,34.10
2019-02-06T05:56:23.516Z,32.07
2019-02-06T05:59:04.872Z,31.43
2019-02-06T06:01:33.734Z,31.87
2019-02-06T06:04:02.598Z,30.67
2019-02-06T06:06:31.518Z,31.70
2019-02-06T06:09:01.110Z,30.33
2019-02-06T06:11:29.965Z,33.00
2019-02-06T06:13:58.810Z,33.05
2019-02-06T06:16:27.681Z,34.17
2019-02-06T06:18:56.568Z,32.20
2019-02-06T06:21:25.390Z,29.60
2019-02-06T06:23:54.259Z,37.17
2019-02-06T06:26:23.081Z,28.40
2019-02-06T06:28:51.937Z,32.53
2019-02-06T06:31:20.822Z,33.77
2019-02-06T06:33:49.686Z,32.33
2019-02-06T06:36:18.515Z,34.00
2019-02-06T06:38:47.362Z,34.77
2019-02-06T06:41:16.215Z,36.93
2019-02-06T06:43:45.068Z,34.90
2019-02-06T06:46:13.916Z,32.33
2019-02-06T06:48:42.790Z,34.03
2019-02-06T06:51:11.630Z,33.80
2019-02-06T06:53:40.534Z,32.10
2019-02-06T06:56:09.390Z,32.17
2019-02-06T06:58:38.241Z,35.47
2019-02-06T07:01:07.096Z,34.37
2019-02-06T07:03:36.674Z,34.70
2019-02-06T07:06:05.529Z,33.83
2019-02-06T07:08:34.373Z,34.20
2019-02-06T07:11:03.967Z,32.20
2019-02-06T07:13:32.821Z,30.93
2019-02-06T07:16:01.687Z,32.17
2019-02-06T07:18:30.526Z,34.40
2019-02-06T07:21:01.435Z,32.33
2019-02-06T07:23:28.250Z,33.77
2019-02-06T07:25:57.105Z,35.05
2019-02-06T07:28:26.031Z,34.20
2019-02-06T07:30:54.906Z,33.80
2019-02-06T07:33:23.713Z,35.37
2019-02-06T07:35:52.564Z,34.83
2019-02-06T07:38:24.314Z,33.63
2019-02-06T07:40:50.278Z,31.10
2019-02-06T07:43:19.143Z,34.37
2019-02-06T07:45:48.035Z,37.73
2019-02-06T07:48:16.869Z,34.65
2019-02-06T07:50:45.734Z,32.77
2019-02-06T07:53:14.587Z,30.63
2019-02-06T07:55:43.459Z,33.27
2019-02-06T07:58:12.308Z,36.17
2019-02-06T08:00:41.203Z,34.97
2019-02-06T08:03:10.017Z,33.40
2019-02-06T08:05:38.874Z,33.00
2019-02-06T08:08:07.757Z,32.83
2019-02-06T08:10:36.600Z,34.60
2019-02-06T08:13:05.446Z,29.23
2019-02-06T08:15:34.293Z,35.90
2019-02-06T08:18:03.209Z,35.90
2019-02-06T08:20:32.083Z,34.13
2019-02-06T08:23:00.901Z,35.77
2019-02-06T08:25:29.747Z,33.57
2019-02-06T08:27:58.596Z,34.53
2019-02-06T08:30:29.415Z,36.53
2019-02-06T08:32:58.289Z,37.50
2019-02-06T08:35:27.230Z,35.10
2019-02-06T08:37:56.021Z,34.30
2019-02-06T08:40:25.819Z,35.87
2019-02-06T08:42:54.633Z,36.03
2019-02-06T08:45:23.491Z,34.97
2019-02-06T08:47:52.329Z,37.00
2019-02-06T08:50:21.209Z,35.37
2019-02-06T08:52:50.051Z,37.03
2019-02-06T08:55:21.815Z,38.90
2019-02-06T08:57:50.682Z,36.40
2019-02-06T09:03:01.468Z,37.05
2019-02-06T09:05:30.302Z,36.57
2019-02-06T09:07:59.159Z,36.28
2019-02-06T09:10:28.009Z,36.33
2019-02-06T09:12:56.850Z,37.50
2019-02-06T09:15:27.420Z,34.87
2019-02-06T09:17:55.279Z,36.87
2019-02-06T09:20:24.131Z,36.87
2019-02-06T09:22:53.039Z,36.30
2019-02-06T09:25:23.627Z,38.57
2019-02-06T09:27:53.207Z,36.63
2019-02-06T09:30:22.063Z,37.83
2019-02-06T09:32:50.921Z,39.80
2019-02-06T09:35:19.747Z,36.27
2019-02-06T09:37:48.586Z,38.00
2019-02-06T09:40:22.112Z,38.40
2019-02-06T09:42:50.955Z,38.60
2019-02-06T09:45:19.813Z,38.17
2019-02-06T09:47:48.669Z,38.37
2019-02-06T09:50:18.394Z,38.63
2019-02-06T09:52:47.221Z,36.57
2019-02-06T09:55:16.056Z,37.30
2019-02-06T09:57:44.915Z,38.47
2019-02-06T10:00:18.456Z,37.50
2019-02-06T10:02:47.285Z,36.33
2019-02-06T10:05:16.107Z,37.27
2019-02-06T10:07:46.133Z,40.23
2019-02-06T10:10:13.819Z,38.50
2019-02-06T10:12:42.653Z,39.10
2019-02-06T10:17:51.721Z,39.45
2019-02-06T10:20:20.575Z,37.83
2019-02-06T10:22:49.419Z,40.93
2019-02-06T10:25:18.279Z,42.30
2019-02-06T10:27:47.120Z,36.87
2019-02-06T10:32:55.243Z,47.13
2019-02-06T10:35:24.077Z,37.72
2019-02-06T10:37:52.917Z,38.10
2019-02-06T10:40:21.779Z,35.63
2019-02-06T10:42:50.615Z,35.43
2019-02-06T10:45:21.119Z,35.07
2019-02-06T10:47:49.039Z,37.63
2019-02-06T10:52:59.917Z,35.53
2019-02-06T10:55:28.756Z,37.23
2019-02-06T10:57:57.606Z,36.27
2019-02-06T11:00:29.896Z,36.83
2019-02-06T11:02:57.097Z,35.27
2019-02-06T11:05:25.926Z,36.20
2019-02-06T11:07:55.510Z,35.27
2019-02-06T11:10:24.347Z,34.60
2019-02-06T11:12:53.183Z,34.78
2019-02-06T11:15:22.032Z,34.83
2019-02-06T11:17:50.890Z,36.80
2019-02-06T11:20:22.239Z,35.15
2019-02-06T11:22:51.811Z,36.83
2019-02-06T11:25:20.662Z,35.90
2019-02-06T11:27:49.508Z,35.30
2019-02-06T11:30:20.957Z,35.63
2019-02-06T11:32:49.787Z,34.22
2019-02-06T11:35:18.650Z,32.30
2019-02-06T11:37:47.505Z,32.80
2019-02-06T11:40:19.292Z,35.78
2019-02-06T11:42:48.127Z,35.30
2019-02-06T11:45:17.842Z,33.53
2019-02-06T11:47:46.669Z,33.33
2019-02-06T11:50:16.406Z,34.73
2019-02-06T11:52:46.011Z,34.60
2019-02-06T11:55:14.826Z,31.57
2019-02-06T11:57:43.671Z,31.33
2019-02-06T12:00:13.131Z,31.73
2019-02-06T12:02:43.938Z,32.53
2019-02-06T12:05:12.767Z,31.10
2019-02-06T12:07:41.605Z,31.00
2019-02-06T12:10:11.368Z,31.07
2019-02-06T12:12:40.219Z,31.13
2019-02-06T12:15:09.849Z,31.33
2019-02-06T12:17:38.769Z,27.00
2019-02-06T12:20:08.439Z,29.50
2019-02-06T12:22:37.300Z,28.07
2019-02-06T12:25:06.853Z,29.40
2019-02-06T12:27:35.707Z,27.50
2019-02-06T12:30:10.147Z,29.30
2019-02-06T12:32:38.993Z,29.77
2019-02-06T12:35:08.598Z,30.57
2019-02-06T12:37:38.197Z,28.57
2019-02-06T12:40:07.813Z,29.50
2019-02-06T12:42:37.397Z,26.87
2019-02-06T12:45:06.229Z,29.03
2019-02-06T12:47:35.343Z,29.50
2019-02-06T12:50:03.943Z,27.73
2019-02-06T12:52:32.777Z,28.62
2019-02-06T12:55:02.381Z,26.23
2019-02-06T12:57:36.902Z,29.23
2019-02-06T13:00:01.589Z,28.07
2019-02-06T13:02:30.448Z,27.33
2019-02-06T13:04:59.326Z,27.20
2019-02-06T13:07:28.123Z,28.00
2019-02-06T13:09:56.967Z,28.80
2019-02-06T13:12:27.384Z,27.37
2019-02-06T13:14:55.430Z,27.80
2019-02-06T13:17:24.255Z,27.77
2019-02-06T13:19:53.097Z,28.30
2019-02-06T13:22:21.937Z,26.93
2019-02-06T13:24:50.783Z,28.90
2019-02-06T13:27:19.637Z,26.90
2019-02-06T13:29:48.487Z,28.40
2019-02-06T13:32:18.073Z,26.83
2019-02-06T13:37:20.737Z,30.97
2019-02-06T13:39:49.574Z,29.45
2019-02-06T13:42:19.155Z,29.13
2019-02-06T13:44:47.989Z,28.95
2019-02-06T13:47:16.837Z,26.97
2019-02-06T13:49:46.961Z,30.13
2019-02-06T13:52:14.563Z,30.40
2019-02-06T13:54:43.403Z,26.97
2019-02-06T13:57:12.245Z,28.97
2019-02-06T13:59:41.091Z,29.63
2019-02-06T14:02:09.931Z,30.30
2019-02-06T14:04:38.761Z,27.67
2019-02-06T14:07:07.631Z,29.77
2019-02-06T14:09:36.443Z,33.87
2019-02-06T14:12:05.310Z,29.67
2019-02-06T14:14:34.167Z,30.35
2019-02-06T14:17:03.011Z,28.33
2019-02-06T14:19:31.853Z,27.90
2019-02-06T14:22:00.701Z,28.40
2019-02-06T14:24:30.311Z,26.43
2019-02-06T14:27:03.322Z,27.47
2019-02-06T14:32:28.993Z,29.77
2019-02-06T14:37:46.643Z,30.02
2019-02-06T14:43:08.070Z,30.52
2019-02-06T14:51:17.353Z,32.55
2019-02-06T14:59:13.575Z,33.07
2019-02-06T15:01:48.657Z,29.53
2019-02-06T15:07:07.369Z,32.42
2019-02-06T15:12:33.263Z,33.20
2019-02-06T15:20:36.085Z,32.05
2019-02-06T15:23:10.480Z,32.10
2019-02-06T15:25:43.239Z,28.70
2019-02-06T15:28:14.839Z,29.73
2019-02-06T15:33:30.544Z,31.80
2019-02-06T15:38:47.390Z,35.27
2019-02-06T15:44:01.839Z,31.33
2019-02-06T15:46:36.729Z,34.00
2019-02-06T15:49:07.143Z,32.47
2019-02-06T15:51:45.262Z,30.93
2019-02-06T15:54:28.095Z,34.70
2019-02-06T15:56:59.585Z,32.43
2019-02-06T16:02:19.424Z,32.97
2019-02-06T16:04:53.583Z,32.07
2019-02-06T16:07:28.677Z,30.87
2019-02-06T16:15:34.725Z,36.08
2019-02-06T16:18:06.175Z,35.33
2019-02-06T16:20:36.881Z,35.20
2019-02-06T16:23:16.128Z,35.72
2019-02-06T16:31:26.113Z,33.72
2019-02-06T16:34:02.771Z,32.80
2019-02-06T16:39:22.325Z,37.10
2019-02-06T16:41:59.930Z,34.53
2019-02-06T16:44:28.761Z,40.80
2019-02-06T16:47:04.122Z,44.47
2019-02-06T16:49:35.477Z,47.27
2019-02-06T16:52:11.912Z,45.33
2019-02-06T16:54:50.606Z,53.30
2019-02-06T16:57:20.334Z,44.40
2019-02-06T16:59:59.013Z,42.77
2019-02-06T17:02:38.234Z,45.67
2019-02-06T17:05:17.580Z,47.07
2019-02-06T17:10:38.382Z,46.42
2019-02-06T17:13:12.548Z,46.50
2019-02-06T17:15:49.710Z,45.87
2019-02-06T17:18:23.794Z,43.93
2019-02-06T17:20:52.633Z,45.93
2019-02-06T17:23:27.426Z,45.57
2019-02-06T17:26:07.546Z,42.97
2019-02-06T17:31:34.042Z,47.80
2019-02-06T17:34:20.436Z,50.90
2019-02-06T17:39:39.022Z,44.72
2019-02-06T17:42:18.116Z,44.47
2019-02-06T17:50:14.131Z,46.03
2019-02-06T17:55:26.784Z,51.70
2019-02-06T17:57:55.634Z,50.27
2019-02-06T18:00:28.408Z,52.42
2019-02-06T18:02:56.001Z,50.33
2019-02-06T18:05:24.840Z,47.63
2019-02-06T18:07:53.694Z,44.47
2019-02-06T18:10:23.277Z,50.93
2019-02-06T18:12:52.129Z,44.67
2019-02-06T18:15:20.961Z,43.67
2019-02-06T18:17:49.827Z,38.73
2019-02-06T18:20:18.673Z,43.83
2019-02-06T18:22:47.507Z,45.70
2019-02-06T18:25:16.335Z,45.60
2019-02-06T18:27:46.719Z,46.97
2019-02-06T18:30:19.504Z,47.10
2019-02-06T18:32:48.360Z,47.53
2019-02-06T18:35:17.205Z,47.80
2019-02-06T18:37:46.987Z,51.67
2019-02-06T18:40:15.810Z,53.33
2019-02-06T18:42:45.460Z,54.73
2019-02-06T18:45:14.303Z,60.67
2019-02-06T18:47:43.900Z,56.17
2019-02-06T18:50:15.639Z,58.08
2019-02-06T18:52:44.484Z,55.50
2019-02-06T18:55:13.322Z,56.53
2019-02-06T18:57:42.158Z,50.97
2019-02-06T19:00:14.712Z,61.43
2019-02-06T19:02:43.550Z,52.03
2019-02-06T19:05:12.435Z,53.30
2019-02-06T19:07:42.032Z,50.77
2019-02-06T19:10:10.859Z,54.67
2019-02-06T19:12:47.865Z,51.23
2019-02-06T19:15:08.587Z,53.47
2019-02-06T19:17:37.439Z,49.37
2019-02-06T19:20:06.345Z,51.50
2019-02-06T19:22:35.151Z,48.03
2019-02-06T19:25:04.752Z,48.23
2019-02-06T19:27:33.604Z,46.23
2019-02-06T19:30:02.455Z,45.97
2019-02-06T19:32:31.315Z,40.77
2019-02-06T19:35:00.916Z,43.33
2019-02-06T19:37:29.779Z,42.07
2019-02-06T19:39:58.660Z,41.00
2019-02-06T19:42:27.515Z,41.67
2019-02-06T19:44:56.922Z,41.70
2019-02-06T19:47:30.036Z,44.13
2019-02-06T19:49:55.388Z,44.67
2019-02-06T19:52:24.968Z,45.43
2019-02-06T19:54:53.810Z,45.57
2019-02-06T19:57:22.639Z,45.77
2019-02-06T19:59:51.478Z,46.10
2019-02-06T20:02:21.111Z,49.90
2019-02-06T20:04:50.656Z,51.77
2019-02-06T20:07:19.488Z,52.47
2019-02-06T20:09:48.322Z,51.13
2019-02-06T20:12:17.171Z,50.03
2019-02-06T20:14:46.018Z,48.90
2019-02-06T20:17:14.860Z,48.27
2019-02-06T20:19:43.752Z,50.22
2019-02-06T20:22:13.320Z,46.77
2019-02-06T20:24:42.904Z,49.10
2019-02-06T20:27:11.748Z,47.60
2019-02-06T20:29:40.586Z,45.80
2019-02-06T20:32:09.417Z,48.47
2019-02-06T20:34:38.250Z,46.17
2019-02-06T20:37:07.102Z,49.03
2019-02-06T20:39:35.938Z,46.37
2019-02-06T20:42:04.785Z,45.57
2019-02-06T20:44:33.616Z,47.13
2019-02-06T20:47:03.112Z,46.83
2019-02-06T20:49:31.926Z,48.15
2019-02-06T20:52:00.784Z,44.37
2019-02-06T20:54:29.614Z,42.20
2019-02-06T20:56:59.195Z,47.30
2019-02-06T20:59:28.067Z,44.77
2019-02-06T21:01:57.196Z,49.78
2019-02-06T21:04:26.053Z,48.73
2019-02-06T21:06:54.899Z,46.80
2019-02-06T21:09:24.470Z,49.20
2019-02-06T21:11:53.320Z,43.07
2019-02-06T21:14:22.168Z,44.15
2019-02-06T21:16:51.780Z,48.23
2019-02-06T21:19:20.672Z,52.50
2019-02-06T21:21:49.476Z,65.53
2019-02-06T21:24:18.310Z,49.03
2019-02-06T21:26:47.194Z,44.57
2019-02-06T21:29:16.029Z,40.80
2019-02-06T21:31:44.874Z,40.63
2019-02-06T21:34:13.720Z,42.50
2019-02-06T21:36:42.574Z,39.97
2019-02-06T21:39:11.415Z,39.33
2019-02-06T21:41:40.244Z,38.92
2019-02-06T21:44:09.124Z,34.53
2019-02-06T21:46:37.962Z,32.13
2019-02-06T21:49:06.818Z,33.97
2019-02-06T21:51:35.655Z,33.60
2019-02-06T21:54:04.489Z,33.03
2019-02-06T21:56:33.358Z,35.93
2019-02-06T21:59:02.239Z,35.07
2019-02-06T22:01:31.028Z,35.87
2019-02-06T22:03:59.899Z,35.57
2019-02-06T22:06:28.715Z,36.37
2019-02-06T22:08:57.546Z,33.27
2019-02-06T22:11:26.378Z,35.50
2019-02-06T22:13:55.634Z,33.45
2019-02-06T22:16:24.804Z,34.90
2019-02-06T22:18:54.384Z,31.57
2019-02-06T22:21:23.230Z,35.30
2019-02-06T22:23:52.088Z,32.80
2019-02-06T22:26:21.674Z,36.07
2019-02-06T22:28:50.520Z,31.20
2019-02-06T22:31:19.364Z,32.20
2019-02-06T22:33:48.195Z,30.90
2019-02-06T22:36:17.064Z,30.77
2019-02-06T22:38:46.749Z,30.53
2019-02-06T22:41:15.480Z,31.33
2019-02-06T22:43:44.327Z,32.47
2019-02-06T22:46:13.148Z,34.77
2019-02-06T22:48:41.978Z,35.67
2019-02-06T22:51:10.822Z,31.50
2019-02-06T22:53:40.412Z,32.80
2019-02-06T22:56:09.263Z,33.30
2019-02-06T22:58:38.099Z,41.47
2019-02-06T23:03:46.239Z,38.35
2019-02-06T23:06:15.818Z,33.93
2019-02-06T23:08:44.686Z,34.43
2019-02-06T23:11:13.523Z,34.00
2019-02-06T23:13:43.113Z,40.60
2019-02-06T23:16:11.938Z,38.73
2019-02-06T23:18:40.870Z,35.77
2019-02-06T23:21:09.692Z,39.00
2019-02-06T23:23:39.270Z,38.70
2019-02-06T23:26:08.119Z,35.27
2019-02-06T23:28:36.949Z,36.40
2019-02-06T23:31:05.784Z,38.57
2019-02-06T23:33:34.700Z,35.50
2019-02-06T23:36:03.535Z,35.20
2019-02-06T23:38:32.368Z,34.93
2019-02-06T23:41:01.214Z,35.00
2019-02-06T23:43:30.039Z,38.73
2019-02-06T23:45:58.885Z,34.63
2019-02-06T23:48:27.747Z,32.63
2019-02-06T23:50:56.588Z,32.80
2019-02-06T23:53:26.160Z,33.57
2019-02-06T23:55:54.990Z,42.87
2019-02-06T23:58:23.834Z,35.73
